Time;durP1;ratioP1;P1;durP2;ratioP2;P2;SDS_P1;SDS_P2;PMS_P1;PMS_P2;Temp;Humidity;BMP_temperature;BMP_pressure;BME280_temperature;BME280_humidity;BME280_pressure;Samples;Min_cycle;Max_cycle;Signal;HPM_P1;HPM_P2
2021/08/31 00:01:35;;;;;;;10.82;7.85;;;22.20;53.50;;;;;;5031390;28;20036;-64
2021/08/31 00:04:01;;;;;;;6.72;5.20;;;22.20;51.80;;;;;;5029287;28;20056;-64
2021/08/31 00:06:27;;;;;;;6.35;5.75;;;22.10;51.00;;;;;;5032189;28;20480;-64
2021/08/31 00:08:52;;;;;;;6.65;5.78;;;22.10;51.90;;;;;;5022118;28;20372;-65
2021/08/31 00:11:19;;;;;;;11.32;8.02;;;22.00;52.10;;;;;;5022425;28;20480;-64
2021/08/31 00:13:45;;;;;;;5.93;5.30;;;22.00;56.30;;;;;;5023671;28;20159;-64
2021/08/31 00:16:11;;;;;;;5.63;4.75;;;21.90;57.50;;;;;;5028134;28;20053;-64
2021/08/31 00:18:36;;;;;;;6.50;5.63;;;21.90;59.30;;;;;;5018083;28;20025;-64
2021/08/31 00:21:02;;;;;;;6.47;5.88;;;22.00;61.90;;;;;;5031130;28;20030;-65
2021/08/31 00:23:27;;;;;;;10.68;7.85;;;22.00;62.40;;;;;;5028434;28;20368;-64
2021/08/31 00:25:53;;;;;;;14.93;12.27;;;22.00;63.40;;;;;;5025031;28;20029;-64
2021/08/31 00:28:20;;;;;;;9.13;6.43;;;22.10;66.80;;;;;;5022248;28;20083;-64
2021/08/31 00:30:45;;;;;;;16.73;11.82;;;22.00;66.90;;;;;;5026377;28;20022;-64
2021/08/31 00:33:11;;;;;;;6.28;5.47;;;22.00;66.70;;;;;;5026043;28;20095;-66
2021/08/31 00:35:37;;;;;;;6.47;4.75;;;22.00;66.60;;;;;;5017599;28;20084;-65
2021/08/31 00:38:02;;;;;;;11.18;10.00;;;22.10;67.20;;;;;;5032089;28;20025;-65
2021/08/31 00:40:29;;;;;;;7.18;5.55;;;22.10;67.50;;;;;;5030149;28;20033;-65
2021/08/31 00:42:54;;;;;;;5.20;4.38;;;22.10;67.40;;;;;;5029154;28;20103;-64
2021/08/31 00:45:20;;;;;;;7.35;6.63;;;22.10;67.80;;;;;;5020245;28;20108;-65
2021/08/31 00:47:45;;;;;;;4.72;3.00;;;22.20;67.50;;;;;;5047263;28;20482;-64
2021/08/31 00:50:13;;;;;;;7.38;6.53;;;22.00;67.60;;;;;;5030445;28;20065;-64
2021/08/31 00:52:40;;;;;;;7.68;6.78;;;22.00;68.60;;;;;;5030166;28;20017;-64
2021/08/31 00:55:07;;;;;;;3.35;3.05;;;21.90;68.90;;;;;;5013707;28;20104;-64
2021/08/31 00:57:33;;;;;;;6.05;4.10;;;21.90;68.00;;;;;;5035500;28;20017;-64
2021/08/31 00:59:58;;;;;;;8.95;7.13;;;21.80;68.50;;;;;;5024124;28;20026;-64
2021/08/31 01:02:25;;;;;;;3.20;2.85;;;21.80;61.00;;;;;;5033125;28;20483;-64
2021/08/31 01:04:50;;;;;;;6.85;5.82;;;21.70;58.40;;;;;;5027909;28;20029;-64
2021/08/31 01:07:16;;;;;;;6.53;5.07;;;21.60;50.90;;;;;;5029444;28;20037;-63
2021/08/31 01:09:42;;;;;;;6.32;4.65;;;21.60;50.80;;;;;;5033434;28;20026;-64
2021/08/31 01:12:08;;;;;;;8.40;6.85;;;21.60;50.80;;;;;;5030437;28;20022;-64
2021/08/31 01:14:34;;;;;;;5.63;4.13;;;21.60;51.20;;;;;;5032503;28;20033;-64
2021/08/31 01:17:00;;;;;;;5.85;3.55;;;21.60;51.40;;;;;;5033964;28;20117;-64
2021/08/31 01:19:31;;;;;;;7.03;5.80;;;21.70;51.10;;;;;;5032084;28;20092;-64
2021/08/31 01:22:06;;;;;;;4.57;2.95;;;21.70;51.50;;;;;;5032356;28;20014;-64
2021/08/31 01:24:32;;;;;;;5.93;5.13;;;21.50;52.60;;;;;;5033012;28;20029;-64
2021/08/31 01:26:59;;;;;;;16.50;8.57;;;21.60;52.10;;;;;;5026267;28;20067;-64
2021/08/31 01:29:30;;;;;;;5.90;2.83;;;21.60;52.20;;;;;;5031355;28;20022;-64
2021/08/31 01:31:57;;;;;;;6.70;5.60;;;21.60;52.60;;;;;;5029445;28;20104;-64
2021/08/31 01:34:22;;;;;;;5.47;3.80;;;21.60;51.90;;;;;;5022747;28;20464;-64
2021/08/31 01:36:48;;;;;;;6.97;4.20;;;21.60;52.40;;;;;;5034959;28;20029;-63
2021/08/31 01:39:14;;;;;;;7.95;5.22;;;21.60;52.50;;;;;;5028106;28;20080;-63
2021/08/31 01:41:40;;;;;;;4.95;3.70;;;21.60;52.60;;;;;;5026448;28;20039;-64
2021/08/31 01:44:05;;;;;;;4.60;3.67;;;21.60;52.60;;;;;;5030160;28;20387;-63
2021/08/31 01:46:31;;;;;;;4.60;3.90;;;21.60;52.90;;;;;;5034707;28;20021;-63
2021/08/31 01:48:57;;;;;;;7.97;5.00;;;21.60;53.10;;;;;;5033368;28;20463;-63
2021/08/31 01:51:23;;;;;;;7.85;6.47;;;21.50;52.90;;;;;;5026959;28;20030;-63
2021/08/31 01:53:48;;;;;;;6.20;4.10;;;21.60;52.90;;;;;;5032791;28;20032;-64
2021/08/31 01:56:14;;;;;;;7.72;5.90;;;21.60;52.70;;;;;;5026391;28;20033;-63
2021/08/31 01:58:40;;;;;;;5.55;4.60;;;21.70;53.30;;;;;;5027631;28;20416;-63
2021/08/31 02:01:06;;;;;;;6.22;4.78;;;21.60;54.00;;;;;;5025035;28;20040;-63
2021/08/31 02:03:31;;;;;;;8.07;5.80;;;21.60;53.80;;;;;;5029875;28;20733;-63
2021/08/31 02:05:57;;;;;;;4.50;3.35;;;21.60;54.00;;;;;;5033134;28;20033;-63
2021/08/31 02:08:22;;;;;;;5.68;3.88;;;21.60;54.20;;;;;;5031382;28;20394;-63
2021/08/31 02:10:48;;;;;;;5.07;4.07;;;21.50;56.50;;;;;;5023416;28;20030;-63
2021/08/31 02:13:13;;;;;;;5.90;5.22;;;21.40;58.00;;;;;;5017892;28;20029;-63
2021/08/31 02:15:39;;;;;;;3.63;2.92;;;21.50;58.80;;;;;;5032823;28;20133;-63
2021/08/31 02:18:05;;;;;;;5.45;4.55;;;21.60;59.00;;;;;;5029694;28;20491;-63
2021/08/31 02:20:30;;;;;;;8.05;6.43;;;21.50;58.40;;;;;;5021838;28;20042;-64
2021/08/31 02:22:56;;;;;;;6.85;4.05;;;21.50;58.60;;;;;;5032237;28;20029;-64
2021/08/31 02:25:22;;;;;;;9.02;5.43;;;21.50;57.90;;;;;;5037203;28;20032;-64
2021/08/31 02:27:47;;;;;;;3.38;3.08;;;21.60;57.60;;;;;;5025532;28;20014;-64
2021/08/31 02:30:14;;;;;;;5.45;4.22;;;21.60;57.10;;;;;;5016015;28;20113;-63
2021/08/31 02:32:39;;;;;;;7.25;5.25;;;21.40;57.40;;;;;;5030888;28;20087;-64
2021/08/31 02:35:05;;;;;;;6.65;4.47;;;21.40;57.30;;;;;;5027028;28;20429;-64
2021/08/31 02:37:31;;;;;;;5.68;4.28;;;21.40;57.50;;;;;;5028588;28;20479;-63
2021/08/31 02:39:57;;;;;;;5.72;4.35;;;21.30;57.30;;;;;;5023942;28;20060;-64
2021/08/31 02:42:22;;;;;;;5.97;3.60;;;21.40;57.40;;;;;;5044090;28;20017;-64
2021/08/31 02:44:48;;;;;;;6.43;4.10;;;21.40;56.80;;;;;;5032593;28;20418;-64
2021/08/31 02:47:14;;;;;;;6.40;4.60;;;21.40;57.40;;;;;;5031959;28;20072;-64
2021/08/31 02:49:39;;;;;;;4.28;3.83;;;21.40;56.90;;;;;;5030487;28;20021;-64
2021/08/31 02:52:05;;;;;;;3.45;3.10;;;21.40;57.00;;;;;;5030468;28;20057;-64
2021/08/31 02:54:31;;;;;;;3.60;3.08;;;21.40;57.20;;;;;;5026894;28;20057;-64
2021/08/31 02:56:57;;;;;;;3.88;2.97;;;21.40;57.10;;;;;;5028933;28;20065;-64
2021/08/31 02:59:22;;;;;;;6.05;3.60;;;21.30;57.10;;;;;;5026229;28;20026;-64
2021/08/31 03:02:08;;;;;;;4.00;3.10;;;21.20;57.50;;;;;;5031648;28;20491;-65
2021/08/31 03:04:43;;;;;;;4.15;3.17;;;21.30;57.50;;;;;;5031965;28;20123;-65
2021/08/31 03:07:14;;;;;;;4.43;2.97;;;21.30;58.60;;;;;;5026256;28;20017;-65
2021/08/31 03:09:39;;;;;;;4.10;2.60;;;21.20;57.90;;;;;;5020487;28;20049;-63
2021/08/31 03:12:06;;;;;;;5.05;3.20;;;21.10;57.60;;;;;;5027667;28;20068;-64
2021/08/31 03:14:31;;;;;;;3.95;3.30;;;21.10;57.90;;;;;;5031715;28;20026;-64
2021/08/31 03:16:57;;;;;;;4.50;2.78;;;21.20;57.70;;;;;;5030537;28;20092;-63
2021/08/31 03:19:24;;;;;;;3.60;3.15;;;21.10;57.90;;;;;;5027107;28;20021;-64
2021/08/31 03:21:52;;;;;;;3.97;3.00;;;21.10;57.90;;;;;;5032871;28;20036;-63
2021/08/31 03:24:18;;;;;;;3.47;3.10;;;21.20;58.10;;;;;;5031781;28;20025;-63
2021/08/31 03:26:44;;;;;;;4.38;3.40;;;21.10;58.70;;;;;;5031151;28;20583;-64
2021/08/31 03:29:10;;;;;;;4.47;3.13;;;21.00;59.80;;;;;;5030311;28;20104;-64
2021/08/31 03:31:36;;;;;;;3.47;3.17;;;21.00;58.10;;;;;;5027975;28;20056;-64
2021/08/31 03:34:02;;;;;;;4.07;3.13;;;20.90;58.30;;;;;;5029389;28;20034;-64
2021/08/31 03:36:28;;;;;;;5.45;2.90;;;21.00;58.70;;;;;;5025769;28;20046;-64
2021/08/31 03:38:53;;;;;;;3.72;2.88;;;21.00;58.70;;;;;;5016784;28;20041;-63
2021/08/31 03:41:19;;;;;;;3.47;3.00;;;21.10;58.20;;;;;;5029874;28;20033;-63
2021/08/31 03:43:46;;;;;;;4.38;2.90;;;21.10;58.50;;;;;;5031553;28;20175;-64
2021/08/31 03:46:11;;;;;;;4.05;3.40;;;21.00;58.20;;;;;;5031232;28;20024;-64
2021/08/31 03:48:37;;;;;;;5.50;3.45;;;21.00;58.40;;;;;;5030692;28;20391;-64
2021/08/31 03:51:03;;;;;;;4.10;3.17;;;21.00;58.30;;;;;;5023430;28;20033;-64
2021/08/31 03:53:28;;;;;;;3.40;3.10;;;21.10;58.40;;;;;;5023804;28;20025;-64
2021/08/31 03:55:54;;;;;;;3.50;3.03;;;21.10;58.10;;;;;;5015746;28;20084;-64
2021/08/31 03:58:19;;;;;;;4.18;3.35;;;21.10;58.50;;;;;;5025571;28;20086;-63
2021/08/31 04:00:45;;;;;;;5.00;3.40;;;21.10;58.10;;;;;;5013221;28;20097;-64
2021/08/31 04:03:10;;;;;;;5.25;3.30;;;21.20;58.00;;;;;;5029316;28;20021;-63
2021/08/31 04:05:36;;;;;;;4.63;3.53;;;21.10;58.20;;;;;;5031219;28;20426;-63
2021/08/31 04:08:02;;;;;;;3.60;3.20;;;21.10;58.40;;;;;;5021240;28;20036;-63
2021/08/31 04:10:27;;;;;;;4.47;3.38;;;21.10;58.50;;;;;;5024639;28;20112;-64
2021/08/31 04:12:53;;;;;;;3.17;2.88;;;21.20;58.30;;;;;;5031955;28;20018;-64
2021/08/31 04:15:19;;;;;;;3.55;3.25;;;21.10;58.30;;;;;;5029499;28;20407;-64
2021/08/31 04:17:44;;;;;;;4.93;3.60;;;21.10;58.70;;;;;;5032046;28;20072;-64
2021/08/31 04:20:10;;;;;;;4.45;3.47;;;21.00;59.10;;;;;;5023779;28;20078;-64
2021/08/31 04:22:36;;;;;;;5.15;3.10;;;21.00;58.80;;;;;;5024663;28;20076;-64
2021/08/31 04:25:03;;;;;;;4.45;3.72;;;21.10;58.70;;;;;;5024596;28;20030;-64
2021/08/31 04:27:28;;;;;;;6.38;3.38;;;21.00;58.60;;;;;;5018900;28;20371;-63
2021/08/31 04:29:54;;;;;;;3.60;3.15;;;20.90;59.20;;;;;;5022938;28;20026;-64
2021/08/31 04:32:19;;;;;;;3.90;3.17;;;20.90;59.10;;;;;;5033029;28;20045;-63
2021/08/31 04:34:46;;;;;;;4.30;2.88;;;21.00;58.90;;;;;;5028007;28;20033;-64
2021/08/31 04:37:12;;;;;;;3.40;3.10;;;20.90;58.70;;;;;;5027920;28;20026;-64
2021/08/31 04:39:37;;;;;;;3.20;2.90;;;20.90;58.80;;;;;;5032847;28;20485;-64
2021/08/31 04:42:05;;;;;;;4.05;3.15;;;20.90;59.30;;;;;;5027975;28;20033;-63
2021/08/31 04:44:31;;;;;;;5.18;3.00;;;20.80;59.50;;;;;;5033703;28;20022;-63
2021/08/31 04:46:56;;;;;;;4.70;3.28;;;20.80;59.40;;;;;;5020713;28;20494;-63
2021/08/31 04:49:22;;;;;;;4.65;3.50;;;20.80;59.70;;;;;;5021298;28;20033;-63
2021/08/31 04:51:48;;;;;;;5.13;3.28;;;20.80;59.80;;;;;;5031344;28;20052;-63
2021/08/31 04:54:13;;;;;;;4.38;3.22;;;20.80;60.10;;;;;;5030012;28;20066;-63
2021/08/31 04:56:39;;;;;;;4.75;3.47;;;20.80;60.30;;;;;;5031220;28;20518;-63
2021/08/31 04:59:04;;;;;;;5.18;3.40;;;20.80;60.00;;;;;;5025519;28;20034;-64
2021/08/31 05:01:30;;;;;;;8.40;4.00;;;20.70;59.90;;;;;;5033409;28;20547;-64
2021/08/31 05:03:56;;;;;;;6.85;3.90;;;20.80;60.10;;;;;;5029564;28;20080;-64
2021/08/31 05:06:21;;;;;;;6.25;3.83;;;20.80;60.00;;;;;;5027506;28;20057;-64
2021/08/31 05:08:47;;;;;;;4.78;4.15;;;20.80;59.70;;;;;;5033285;28;20032;-63
2021/08/31 05:11:12;;;;;;;4.55;3.90;;;20.80;60.10;;;;;;5029604;28;20073;-64
2021/08/31 05:13:40;;;;;;;4.70;4.03;;;20.70;60.00;;;;;;5033776;28;20028;-64
2021/08/31 05:16:12;;;;;;;6.18;3.50;;;20.70;59.90;;;;;;5022784;28;20030;-63
2021/08/31 05:18:37;;;;;;;3.65;3.10;;;20.80;60.10;;;;;;5033501;28;20048;-64
2021/08/31 05:21:07;;;;;;;4.63;3.58;;;20.80;59.80;;;;;;5023068;28;20495;-63
2021/08/31 05:23:32;;;;;;;4.10;3.38;;;20.90;59.70;;;;;;5035041;28;20079;-63
2021/08/31 05:25:59;;;;;;;4.38;3.35;;;20.90;59.40;;;;;;5033022;28;20025;-64
2021/08/31 05:28:24;;;;;;;5.50;3.50;;;21.00;59.20;;;;;;5031978;28;20496;-64
2021/08/31 05:30:50;;;;;;;4.03;3.67;;;21.00;59.10;;;;;;5031264;28;20104;-63
2021/08/31 05:33:16;;;;;;;5.78;3.95;;;21.10;59.30;;;;;;5028525;28;20025;-64
2021/08/31 05:35:41;;;;;;;4.45;3.38;;;21.00;59.50;;;;;;5027402;28;20067;-64
2021/08/31 05:38:07;;;;;;;6.10;3.83;;;20.90;59.80;;;;;;5031853;28;20167;-63
2021/08/31 05:40:32;;;;;;;5.20;3.03;;;20.90;59.90;;;;;;5028978;28;20475;-64
2021/08/31 05:42:58;;;;;;;6.13;3.60;;;20.90;59.80;;;;;;5033892;28;20538;-64
2021/08/31 05:45:24;;;;;;;4.85;3.15;;;20.90;60.00;;;;;;5033612;28;20021;-63
2021/08/31 05:47:49;;;;;;;5.60;3.55;;;20.80;60.20;;;;;;5018366;28;20109;-64
2021/08/31 05:50:15;;;;;;;5.05;3.25;;;20.80;60.20;;;;;;5031582;28;20091;-64
2021/08/31 05:52:41;;;;;;;6.57;3.35;;;20.90;59.90;;;;;;5046995;28;20029;-64
2021/08/31 05:55:07;;;;;;;3.88;2.95;;;21.00;59.60;;;;;;5024289;28;20593;-64
2021/08/31 05:57:32;;;;;;;4.85;3.25;;;21.10;59.60;;;;;;5028829;28;20030;-64
2021/08/31 05:59:58;;;;;;;6.40;3.40;;;21.10;59.30;;;;;;5023875;28;20371;-64
2021/08/31 06:02:24;;;;;;;3.58;3.28;;;21.10;59.30;;;;;;5031394;28;20071;-64
2021/08/31 06:04:49;;;;;;;4.95;3.00;;;21.20;59.40;;;;;;5028241;28;20410;-64
2021/08/31 06:07:15;;;;;;;5.22;3.63;;;21.10;59.50;;;;;;5025221;28;20398;-63
2021/08/31 06:09:41;;;;;;;3.80;3.25;;;21.10;59.40;;;;;;5029872;28;20036;-64
2021/08/31 06:12:12;;;;;;;8.05;4.20;;;21.20;59.40;;;;;;5028166;28;20395;-64
2021/08/31 06:14:39;;;;;;;5.55;4.50;;;21.30;59.30;;;;;;5031049;28;20018;-63
2021/08/31 06:17:05;;;;;;;5.90;4.38;;;21.30;59.00;;;;;;5029006;28;20838;-64
2021/08/31 06:19:31;;;;;;;4.95;4.15;;;21.30;59.00;;;;;;5026559;28;20052;-64
2021/08/31 06:21:57;;;;;;;6.93;4.05;;;21.40;58.90;;;;;;5029520;28;20025;-64
2021/08/31 06:24:23;;;;;;;5.05;3.58;;;21.40;58.90;;;;;;5030923;28;20026;-64
2021/08/31 06:26:49;;;;;;;6.85;3.97;;;21.40;58.70;;;;;;5023625;28;20041;-63
2021/08/31 06:29:14;;;;;;;4.25;3.60;;;21.40;58.30;;;;;;5031794;28;20025;-65
2021/08/31 06:31:40;;;;;;;4.15;2.92;;;21.30;58.20;;;;;;5028283;28;20400;-64
2021/08/31 06:34:06;;;;;;;4.22;3.22;;;21.50;58.00;;;;;;5028203;28;20449;-63
2021/08/31 06:36:31;;;;;;;5.07;3.92;;;21.70;57.20;;;;;;5029125;28;20046;-63
2021/08/31 06:38:58;;;;;;;5.28;3.42;;;21.70;56.60;;;;;;5030397;28;20076;-64
2021/08/31 06:41:23;;;;;;;7.47;4.45;;;21.70;56.40;;;;;;5027149;28;20032;-64
2021/08/31 06:43:49;;;;;;;7.63;4.60;;;21.80;56.70;;;;;;5031652;28;20021;-63
2021/08/31 06:46:15;;;;;;;7.97;3.58;;;21.70;56.90;;;;;;5029195;28;20044;-63
2021/08/31 06:48:44;;;;;;;6.45;4.40;;;21.70;56.20;;;;;;5026877;28;20032;-63
2021/08/31 06:51:11;;;;;;;4.72;4.30;;;21.90;56.10;;;;;;5023403;28;20061;-63
2021/08/31 06:53:38;;;;;;;5.20;4.15;;;21.90;56.10;;;;;;5029963;28;20021;-63
2021/08/31 06:56:04;;;;;;;7.07;4.30;;;22.00;55.50;;;;;;5025486;28;20056;-63
2021/08/31 06:58:29;;;;;;;9.10;4.07;;;22.10;55.50;;;;;;5025069;28;20025;-64
2021/08/31 07:00:55;;;;;;;7.88;5.63;;;22.10;55.10;;;;;;5024233;28;20028;-64
2021/08/31 07:03:20;;;;;;;6.50;4.20;;;22.10;55.00;;;;;;5027511;28;20076;-64
2021/08/31 07:05:46;;;;;;;5.55;3.88;;;22.20;54.50;;;;;;5025098;28;20613;-64
2021/08/31 07:08:11;;;;;;;5.10;3.55;;;22.20;53.90;;;;;;5025156;28;20415;-65
2021/08/31 07:10:37;;;;;;;6.10;3.63;;;22.20;53.30;;;;;;5029962;28;20034;-64
2021/08/31 07:13:03;;;;;;;5.03;3.10;;;22.20;53.40;;;;;;5031783;28;20041;-65
2021/08/31 07:15:28;;;;;;;6.18;3.72;;;22.20;53.10;;;;;;5028747;28;20043;-64
2021/08/31 07:17:54;;;;;;;4.03;3.30;;;22.10;51.70;;;;;;5031292;28;20108;-63
2021/08/31 07:20:20;;;;;;;4.93;3.65;;;22.00;52.80;;;;;;5031994;28;20125;-64
2021/08/31 07:22:45;;;;;;;4.20;3.35;;;22.10;52.60;;;;;;5032221;28;20030;-64
2021/08/31 07:25:11;;;;;;;6.18;3.58;;;22.00;52.70;;;;;;5028068;28;20486;-64
2021/08/31 07:27:37;;;;;;;4.57;3.00;;;22.00;52.50;;;;;;5046695;28;20037;-63
2021/08/31 07:30:03;;;;;;;5.13;3.55;;;22.00;52.50;;;;;;5029333;28;20017;-64
2021/08/31 07:32:29;;;;;;;4.22;3.55;;;22.10;52.50;;;;;;5029287;28;20562;-64
2021/08/31 07:34:55;;;;;;;7.00;4.25;;;21.90;52.70;;;;;;5032172;28;20208;-64
2021/08/31 07:37:20;;;;;;;7.55;3.95;;;21.90;53.20;;;;;;5024274;28;20033;-63
2021/08/31 07:39:46;;;;;;;6.45;4.00;;;22.00;53.20;;;;;;5030820;28;20504;-63
2021/08/31 07:42:12;;;;;;;6.82;4.35;;;22.00;53.20;;;;;;5029033;28;20099;-64
2021/08/31 07:44:38;;;;;;;11.82;3.97;;;22.10;53.50;;;;;;5025767;28;20029;-64
2021/08/31 07:47:04;;;;;;;5.35;4.20;;;22.10;53.60;;;;;;5025854;28;20136;-64
2021/08/31 07:49:30;;;;;;;7.88;4.35;;;22.30;53.20;;;;;;5030753;28;20328;-64
2021/08/31 07:51:55;;;;;;;5.25;4.07;;;22.50;53.10;;;;;;5030377;28;20030;-64
2021/08/31 07:54:21;;;;;;;5.38;4.40;;;22.50;52.60;;;;;;5031187;28;20129;-64
2021/08/31 07:56:47;;;;;;;5.80;5.30;;;22.70;52.10;;;;;;5025907;28;20042;-64
2021/08/31 07:59:13;;;;;;;6.93;5.80;;;22.80;51.70;;;;;;5026662;28;20025;-64
2021/08/31 08:01:38;;;;;;;5.28;4.78;;;23.00;51.40;;;;;;5026563;28;20029;-64
2021/08/31 08:04:04;;;;;;;7.00;4.65;;;23.10;51.10;;;;;;5017940;28;20026;-64
2021/08/31 08:06:30;;;;;;;5.93;4.75;;;23.00;51.30;;;;;;5024519;28;20044;-64
2021/08/31 08:08:56;;;;;;;6.13;4.35;;;23.10;51.50;;;;;;5019326;28;20061;-64
2021/08/31 08:11:22;;;;;;;5.00;4.55;;;23.10;51.70;;;;;;5022688;28;20040;-64
2021/08/31 08:13:48;;;;;;;9.05;5.38;;;23.10;51.60;;;;;;5012654;28;20386;-64
2021/08/31 08:16:13;;;;;;;6.30;5.00;;;23.10;51.60;;;;;;5022782;28;20037;-63
2021/08/31 08:18:39;;;;;;;5.50;4.55;;;22.80;51.80;;;;;;5027722;28;20026;-64
2021/08/31 08:21:05;;;;;;;5.63;5.13;;;22.90;52.10;;;;;;5025613;28;20036;-64
2021/08/31 08:23:31;;;;;;;5.85;5.30;;;22.80;52.40;;;;;;5018375;28;20026;-64
2021/08/31 08:25:56;;;;;;;5.80;5.32;;;22.70;52.70;;;;;;5027384;28;20022;-64
2021/08/31 08:28:24;;;;;;;10.13;5.45;;;22.70;52.90;;;;;;5019450;28;20034;-64
2021/08/31 08:30:51;;;;;;;8.07;7.25;;;22.70;53.20;;;;;;5028438;28;20061;-63
2021/08/31 08:33:17;;;;;;;10.40;8.60;;;22.70;52.90;;;;;;5024515;28;20083;-65
2021/08/31 08:35:43;;;;;;;7.72;6.90;;;22.80;53.00;;;;;;5022561;28;20045;-64
2021/08/31 08:38:09;;;;;;;7.70;6.93;;;22.70;53.10;;;;;;5041548;28;20479;-65
2021/08/31 08:40:35;;;;;;;11.48;6.32;;;22.80;53.00;;;;;;5024163;28;20088;-64
2021/08/31 08:43:05;;;;;;;7.90;5.13;;;22.80;53.30;;;;;;5022425;28;20152;-64
2021/08/31 08:45:32;;;;;;;10.10;8.40;;;23.00;52.60;;;;;;5018414;28;20107;-64
2021/08/31 08:47:57;;;;;;;14.65;13.30;;;23.20;52.80;;;;;;5023709;28;20070;-63
2021/08/31 08:50:24;;;;;;;6.13;4.28;;;23.10;52.20;;;;;;5031318;28;20036;-64
2021/08/31 08:52:50;;;;;;;7.28;4.60;;;23.20;52.70;;;;;;5027111;28;20018;-64
2021/08/31 08:55:16;;;;;;;6.35;5.75;;;23.20;51.80;;;;;;5028409;28;20499;-63
2021/08/31 08:57:43;;;;;;;10.88;4.80;;;23.40;51.90;;;;;;5027455;28;20450;-63
2021/08/31 09:00:10;;;;;;;7.35;4.45;;;23.60;51.30;;;;;;5025798;28;20022;-63
2021/08/31 09:02:39;;;;;;;7.22;5.15;;;23.60;51.10;;;;;;5024664;28;20052;-64
2021/08/31 09:05:07;;;;;;;6.38;5.07;;;23.60;51.30;;;;;;5031063;28;20079;-64
2021/08/31 09:07:39;;;;;;;7.47;5.30;;;23.40;51.80;;;;;;5023327;28;20188;-63
2021/08/31 09:10:13;;;;;;;5.70;4.90;;;23.40;52.00;;;;;;5021286;28;20041;-64
2021/08/31 09:12:40;;;;;;;5.82;5.25;;;23.20;52.30;;;;;;5024508;28;20088;-63
2021/08/31 09:15:25;;;;;;;5.18;3.97;;;23.00;52.90;;;;;;5020367;28;20053;-64
2021/08/31 09:18:06;;;;;;;;;;;23.10;52.90;;;;;;5031347;28;20372;-64
2021/08/31 09:20:35;;;;;;;6.22;5.43;;;23.00;53.20;;;;;;5028660;28;19916;-63
2021/08/31 09:23:00;;;;;;;9.05;5.50;;;22.90;53.20;;;;;;5022315;28;20071;-64
2021/08/31 09:25:43;;;;;;;7.03;4.88;;;23.00;53.60;;;;;;5027174;28;20531;-63
2021/08/31 09:28:25;;;;;;;4.82;4.07;;;23.20;53.90;;;;;;5029369;28;20441;-64
2021/08/31 09:31:01;;;;;;;5.07;4.60;;;23.40;53.30;;;;;;5025766;28;20041;-63
2021/08/31 09:33:29;;;;;;;7.13;4.97;;;23.50;52.40;;;;;;5027869;28;20040;-63
2021/08/31 09:36:09;;;;;;;6.78;4.82;;;23.50;52.00;;;;;;5023124;28;20037;-64
2021/08/31 09:38:54;;;;;;;10.63;5.43;;;23.90;51.80;;;;;;5023963;28;20022;-64
2021/08/31 09:41:40;;;;;;;6.85;4.75;;;24.00;51.30;;;;;;5025121;28;20030;-64
2021/08/31 09:44:21;;;;;;;7.15;4.85;;;24.10;50.80;;;;;;5032853;28;20821;-63
2021/08/31 09:46:53;;;;;;;7.68;5.22;;;24.10;50.60;;;;;;5020112;28;20052;-64
2021/08/31 09:49:24;;;;;;;6.28;4.75;;;24.10;50.20;;;;;;5028042;28;20037;-64
2021/08/31 09:52:01;;;;;;;9.30;5.80;;;24.20;50.40;;;;;;5025303;28;20029;-64
2021/08/31 09:54:27;;;;;;;5.82;4.70;;;24.30;50.00;;;;;;5026762;28;20033;-64
2021/08/31 09:56:53;;;;;;;6.30;5.05;;;24.40;49.80;;;;;;5033270;28;20557;-65
2021/08/31 09:59:19;;;;;;;6.45;4.88;;;24.20;49.80;;;;;;5033054;28;20068;-64
2021/08/31 10:01:45;;;;;;;5.22;4.20;;;24.30;50.10;;;;;;5032168;28;20064;-63
2021/08/31 10:04:10;;;;;;;6.53;4.80;;;24.40;50.10;;;;;;5030850;28;20049;-64
2021/08/31 10:06:38;;;;;;;4.85;4.35;;;24.30;49.90;;;;;;5029116;28;20491;-64
2021/08/31 10:09:04;;;;;;;6.90;4.82;;;24.40;50.00;;;;;;5024845;28;20094;-64
2021/08/31 10:11:31;;;;;;;6.80;5.03;;;24.60;49.70;;;;;;5045250;28;20457;-64
2021/08/31 10:13:59;;;;;;;9.48;4.93;;;24.70;49.30;;;;;;5031529;28;20021;-64
2021/08/31 10:16:25;;;;;;;6.57;4.97;;;24.70;49.00;;;;;;5022079;28;20107;-64
2021/08/31 10:18:50;;;;;;;5.03;4.63;;;24.60;49.20;;;;;;5031439;28;20473;-64
2021/08/31 10:21:16;;;;;;;5.82;4.72;;;24.70;48.80;;;;;;5017127;28;20034;-64
2021/08/31 10:23:45;;;;;;;8.55;5.32;;;24.90;48.70;;;;;;5029873;28;20494;-64
2021/08/31 10:26:22;;;;;;;7.60;5.28;;;24.80;48.80;;;;;;5031369;28;20017;-64
2021/08/31 10:28:49;;;;;;;6.38;4.82;;;24.90;47.90;;;;;;5024319;28;20053;-64
2021/08/31 10:31:32;;;;;;;4.80;4.15;;;25.00;47.90;;;;;;5027393;28;20423;-64
2021/08/31 10:33:57;;;;;;;5.13;4.55;;;25.10;47.50;;;;;;5025914;28;20601;-64
2021/08/31 10:36:37;;;;;;;6.10;5.47;;;25.30;47.50;;;;;;5023673;28;20034;-64
2021/08/31 10:39:07;;;;;;;6.53;4.88;;;25.30;46.90;;;;;;5017286;28;20464;-64
2021/08/31 10:41:36;;;;;;;9.35;5.45;;;25.30;47.30;;;;;;5029976;28;20033;-64
2021/08/31 10:44:04;;;;;;;6.28;4.50;;;25.30;46.80;;;;;;5032469;28;20527;-64
2021/08/31 10:46:57;;;;;;;5.70;4.30;;;25.40;46.30;;;;;;5032182;28;20048;-64
2021/08/31 10:49:24;;;;;;;5.57;5.07;;;25.40;46.00;;;;;;5023259;28;20028;-64
2021/08/31 10:52:09;;;;;;;5.57;4.03;;;25.40;45.70;;;;;;5025261;28;20036;-64
2021/08/31 10:54:49;;;;;;;6.30;4.78;;;25.80;45.30;;;;;;5025238;28;20029;-64
2021/08/31 10:57:37;;;;;;;7.13;4.95;;;25.80;44.20;;;;;;5022451;28;20033;-65
2021/08/31 11:00:14;;;;;;;5.45;4.50;;;25.50;45.10;;;;;;5046600;28;20399;-65
2021/08/31 11:02:49;;;;;;;5.28;4.40;;;25.80;44.70;;;;;;5027106;28;20064;-63
2021/08/31 11:05:20;;;;;;;4.95;3.53;;;26.10;43.70;;;;;;5029463;28;20021;-63
2021/08/31 11:07:47;;;;;;;5.38;4.47;;;26.30;44.80;;;;;;5015620;28;20034;-63
2021/08/31 11:10:21;;;;;;;8.75;6.78;;;26.50;44.10;;;;;;5022353;28;20073;-64
2021/08/31 11:12:47;;;;;;;8.17;5.27;;;26.50;43.20;;;;;;5021887;28;20040;-64
2021/08/31 11:15:24;;;;;;;5.93;4.82;;;26.40;43.40;;;;;;5024262;28;20041;-64
2021/08/31 11:17:51;;;;;;;5.28;4.20;;;26.50;43.50;;;;;;5026334;28;20022;-63
2021/08/31 11:20:37;;;;;;;5.85;4.65;;;26.60;42.60;;;;;;5025938;28;20060;-64
2021/08/31 11:23:02;;;;;;;5.57;4.93;;;26.80;41.50;;;;;;5020361;28;20038;-63
2021/08/31 11:25:30;;;;;;;6.68;4.93;;;26.70;41.40;;;;;;5025653;28;20044;-64
2021/08/31 11:28:02;;;;;;;6.38;5.78;;;26.90;41.30;;;;;;5020914;28;20033;-64
2021/08/31 11:30:28;;;;;;;8.68;5.45;;;26.40;42.00;;;;;;5020977;28;20038;-64
2021/08/31 11:33:15;;;;;;;7.18;6.47;;;26.40;41.70;;;;;;5026083;28;20041;-64
2021/08/31 11:35:41;;;;;;;7.75;5.45;;;26.50;41.30;;;;;;5031028;28;20406;-64
2021/08/31 11:38:07;;;;;;;8.82;4.60;;;26.60;42.10;;;;;;5030081;28;20081;-64
2021/08/31 11:40:33;;;;;;;7.18;5.43;;;26.30;42.00;;;;;;5031874;28;20411;-63
2021/08/31 11:42:58;;;;;;;11.65;4.32;;;26.60;43.10;;;;;;5030779;28;20452;-64
2021/08/31 11:45:33;;;;;;;7.15;4.65;;;26.80;40.90;;;;;;5032258;28;20034;-64
2021/08/31 11:47:59;;;;;;;4.68;3.88;;;27.20;40.00;;;;;;5022744;28;20060;-64
2021/08/31 11:50:24;;;;;;;6.40;4.13;;;27.70;46.00;;;;;;5029614;28;20052;-64
2021/08/31 11:52:52;;;;;;;5.32;4.18;;;29.50;35.60;;;;;;5028168;28;20029;-64
2021/08/31 11:55:25;;;;;;;5.82;4.13;;;32.50;30.30;;;;;;5025442;28;20120;-64
2021/08/31 11:58:02;;;;;;;5.20;4.18;;;;;;;;;;5030434;28;20053;-64
2021/08/31 12:00:39;;;;;;;6.95;4.20;;;33.00;47.20;;;;;;5029479;28;20100;-64
2021/08/31 12:03:21;;;;;;;6.20;3.75;;;32.00;49.60;;;;;;5029773;28;20030;-64
2021/08/31 12:05:47;;;;;;;4.55;3.78;;;;;;;;;;5023537;28;20026;-64
2021/08/31 12:08:13;;;;;;;5.13;3.90;;;30.80;46.20;;;;;;5018078;28;20037;-64
2021/08/31 12:10:39;;;;;;;5.90;3.53;;;29.40;43.30;;;;;;5020684;28;20111;-64
2021/08/31 12:13:05;;;;;;;4.28;3.40;;;29.90;42.70;;;;;;5028388;28;20049;-64
2021/08/31 12:15:32;;;;;;;5.45;3.60;;;30.30;41.80;;;;;;5025844;28;20080;-64
2021/08/31 12:18:03;;;;;;;7.07;3.80;;;31.20;34.50;;;;;;5025080;28;20066;-64
2021/08/31 12:20:29;;;;;;;6.00;3.50;;;;;;;;;;5018297;28;20033;-64
2021/08/31 12:23:01;;;;;;;6.70;3.83;;;33.30;50.40;;;;;;5045224;28;20018;-64
2021/08/31 12:25:38;;;;;;;7.78;4.07;;;34.60;44.40;;;;;;5029885;28;20145;-64
2021/08/31 12:28:04;;;;;;;4.95;3.35;;;;;;;;;;5025663;28;20022;-65
2021/08/31 12:30:38;;;;;;;7.65;3.60;;;35.30;51.90;;;;;;5024340;28;20044;-65
2021/08/31 12:33:05;;;;;;;2.92;2.55;;;34.90;34.20;;;;;;5017591;28;20045;-65
2021/08/31 12:35:36;;;;;;;4.88;2.90;;;34.50;40.00;;;;;;5016734;28;20029;-65
2021/08/31 12:38:19;;;;;;;5.30;3.17;;;35.50;22.50;;;;;;5017843;28;20404;-65
2021/08/31 12:40:53;;;;;;;5.18;2.90;;;35.90;18.70;;;;;;5030045;28;20029;-65
2021/08/31 12:43:19;;;;;;;4.03;2.83;;;;;;;;;;5027897;28;20053;-66
2021/08/31 12:46:00;;;;;;;3.55;2.95;;;36.90;24.10;;;;;;5034164;28;20414;-65
2021/08/31 12:48:38;;;;;;;5.40;2.92;;;37.40;37.80;;;;;;5024113;28;20024;-66
2021/08/31 12:51:05;;;;;;;2.67;2.53;;;37.10;36.40;;;;;;5037940;28;20116;-66